createdAt,value
2019-05-12T00:00:45.186Z,3.40
2019-05-12T00:03:14.377Z,3.83
2019-05-12T00:05:43.498Z,3.87
2019-05-12T00:08:12.642Z,3.83
2019-05-12T00:10:41.780Z,3.87
2019-05-12T00:13:11.007Z,3.63
2019-05-12T00:15:40.220Z,4.30
2019-05-12T00:18:09.452Z,3.60
2019-05-12T00:20:38.869Z,3.80
2019-05-12T00:23:23.367Z,4.13
2019-05-12T00:25:38.977Z,3.50
2019-05-12T00:28:08.085Z,3.83
2019-05-12T00:30:43.354Z,3.80
2019-05-12T00:33:12.688Z,5.30
2019-05-12T00:35:41.799Z,3.93
2019-05-12T00:38:10.948Z,4.30
2019-05-12T00:40:40.639Z,4.60
2019-05-12T00:43:10.227Z,3.90
2019-05-12T00:45:39.745Z,3.90
2019-05-12T00:48:09.698Z,3.87
2019-05-12T00:50:38.984Z,4.90
2019-05-12T00:53:09.366Z,4.60
2019-05-12T00:55:38.910Z,4.40
2019-05-12T00:58:08.883Z,4.17
2019-05-12T01:00:40.424Z,4.27
2019-05-12T01:03:09.276Z,4.07
2019-05-12T01:05:38.756Z,4.90
2019-05-12T01:08:09.719Z,5.13
2019-05-12T01:10:39.437Z,4.70
2019-05-12T01:13:09.092Z,5.27
2019-05-12T01:15:38.684Z,5.00
2019-05-12T01:18:09.457Z,5.67
2019-05-12T01:20:39.333Z,5.90
2019-05-12T01:23:09.063Z,5.50
2019-05-12T01:25:39.682Z,5.50
2019-05-12T01:28:10.672Z,6.67
2019-05-12T01:30:39.889Z,6.40
2019-05-12T01:33:09.308Z,6.70
2019-05-12T01:35:39.302Z,6.87
2019-05-12T01:38:08.581Z,6.93
2019-05-12T01:40:39.518Z,7.20
2019-05-12T01:43:09.108Z,7.33
2019-05-12T01:45:38.532Z,7.40
2019-05-12T01:48:10.081Z,7.90
2019-05-12T01:50:39.364Z,7.40
2019-05-12T01:53:08.922Z,8.30
2019-05-12T01:55:39.079Z,7.80
2019-05-12T01:58:08.976Z,9.00
2019-05-12T02:00:39.009Z,9.50
2019-05-12T02:03:09.312Z,10.20
2019-05-12T02:05:40.956Z,9.03
2019-05-12T02:08:15.632Z,9.27
2019-05-12T02:10:44.864Z,9.93
2019-05-12T02:13:14.012Z,9.50
2019-05-12T02:15:43.264Z,10.60
2019-05-12T02:18:12.431Z,10.13
2019-05-12T02:20:41.582Z,10.53
2019-05-12T02:23:10.703Z,9.37
2019-05-12T02:25:39.832Z,10.60
2019-05-12T02:28:09.556Z,9.23
2019-05-12T02:30:41.509Z,10.00
2019-05-12T02:33:09.907Z,10.97
2019-05-12T02:35:39.031Z,10.67
2019-05-12T02:38:08.172Z,11.40
2019-05-12T02:40:37.307Z,10.93
2019-05-12T02:43:06.427Z,11.90
2019-05-12T02:45:36.214Z,11.67
2019-05-12T02:48:05.813Z,11.13
2019-05-12T02:50:37.832Z,11.20
2019-05-12T02:53:07.625Z,10.93
2019-05-12T02:55:37.053Z,10.00
2019-05-12T02:58:06.927Z,11.27
2019-05-12T03:00:37.101Z,10.70
2019-05-12T03:03:08.746Z,10.20
2019-05-12T03:05:39.769Z,11.60
2019-05-12T03:08:09.005Z,11.60
2019-05-12T03:10:38.285Z,11.30
2019-05-12T03:13:07.491Z,11.30
2019-05-12T03:15:37.707Z,11.83
2019-05-12T03:18:08.309Z,11.27
2019-05-12T03:20:37.465Z,11.87
2019-05-12T03:23:07.112Z,12.23
2019-05-12T03:25:37.256Z,11.30
2019-05-12T03:28:09.345Z,12.67
2019-05-12T03:30:40.490Z,11.53
2019-05-12T03:33:11.421Z,12.40
2019-05-12T03:35:43.860Z,11.10
2019-05-12T03:38:10.585Z,12.47
2019-05-12T03:40:39.837Z,11.27
2019-05-12T03:43:08.970Z,12.07
2019-05-12T03:45:38.162Z,12.63
2019-05-12T03:48:07.332Z,13.30
2019-05-12T03:50:36.565Z,12.17
2019-05-12T03:53:10.813Z,11.80
2019-05-12T03:55:41.956Z,11.80
2019-05-12T03:58:07.973Z,12.80
2019-05-12T04:00:37.167Z,13.93
2019-05-12T04:03:06.378Z,12.60
2019-05-12T04:05:36.114Z,14.57
2019-05-12T04:08:06.848Z,12.40
2019-05-12T04:10:36.841Z,12.67
2019-05-12T04:13:06.452Z,13.40
2019-05-12T04:15:36.005Z,12.60
2019-05-12T04:18:06.382Z,13.43
2019-05-12T04:20:36.519Z,14.00
2019-05-12T04:23:06.968Z,13.83
2019-05-12T04:25:51.765Z,13.93
2019-05-12T04:28:07.316Z,13.77
2019-05-12T04:30:36.510Z,13.47
2019-05-12T04:33:06.023Z,13.73
2019-05-12T04:35:35.880Z,12.90
2019-05-12T04:38:05.546Z,13.30
2019-05-12T04:40:36.268Z,14.40
2019-05-12T04:43:06.798Z,13.77
2019-05-12T04:45:36.269Z,13.33
2019-05-12T04:48:06.197Z,12.07
2019-05-12T04:50:36.455Z,13.20
2019-05-12T04:53:06.961Z,13.60
2019-05-12T04:55:36.734Z,14.73
2019-05-12T04:58:06.378Z,13.70
2019-05-12T05:00:36.127Z,11.87
2019-05-12T05:03:06.095Z,12.30
2019-05-12T05:05:36.255Z,12.83
2019-05-12T05:08:05.769Z,12.87
2019-05-12T05:10:35.200Z,13.37
2019-05-12T05:13:05.425Z,12.47
2019-05-12T05:15:35.508Z,11.40
2019-05-12T05:18:06.787Z,13.47
2019-05-12T05:20:35.746Z,12.03
2019-05-12T05:23:05.079Z,11.33
2019-05-12T05:25:35.136Z,11.80
2019-05-12T05:28:04.582Z,13.20
2019-05-12T05:30:34.238Z,12.37
2019-05-12T05:33:05.103Z,11.30
2019-05-12T05:35:39.247Z,11.33
2019-05-12T05:38:05.921Z,11.97
2019-05-12T05:40:35.973Z,11.57
2019-05-12T05:43:12.538Z,14.13
2019-05-12T05:45:36.343Z,11.57
2019-05-12T05:48:10.048Z,11.83
2019-05-12T05:50:36.432Z,11.90
2019-05-12T05:53:09.136Z,10.30
2019-05-12T05:55:36.431Z,11.47
2019-05-12T05:58:10.158Z,10.60
2019-05-12T06:00:39.320Z,11.70
2019-05-12T06:03:14.944Z,12.17
2019-05-12T06:05:38.867Z,13.03
2019-05-12T06:08:16.193Z,10.60
2019-05-12T06:10:40.415Z,9.87
2019-05-12T06:13:09.819Z,10.10
2019-05-12T06:15:40.913Z,9.73
2019-05-12T06:18:09.907Z,11.10
2019-05-12T06:20:39.021Z,9.83
2019-05-12T06:23:08.165Z,9.93
2019-05-12T06:25:54.713Z,10.73
2019-05-12T06:28:09.068Z,10.40
2019-05-12T06:30:44.121Z,10.30
2019-05-12T06:33:09.468Z,9.33
2019-05-12T06:35:42.262Z,10.60
2019-05-12T06:38:09.430Z,10.37
2019-05-12T06:40:41.196Z,10.70
2019-05-12T06:43:09.457Z,9.43
2019-05-12T06:45:42.650Z,10.00
2019-05-12T06:48:09.565Z,9.50
2019-05-12T06:50:39.432Z,11.30
2019-05-12T06:53:08.877Z,9.10
2019-05-12T06:55:39.349Z,9.20
2019-05-12T06:58:08.793Z,10.00
2019-05-12T07:00:38.052Z,8.90
2019-05-12T07:03:07.290Z,8.93
2019-05-12T07:05:38.536Z,9.40
2019-05-12T07:08:07.563Z,8.30
2019-05-12T07:10:42.972Z,8.67
2019-05-12T07:13:07.549Z,8.10
2019-05-12T07:15:40.346Z,8.20
2019-05-12T07:18:13.543Z,8.60
2019-05-12T07:20:43.557Z,7.10
2019-05-12T07:23:14.237Z,7.30
2019-05-12T07:25:44.437Z,7.23
2019-05-12T07:28:14.475Z,7.00
2019-05-12T07:30:44.195Z,6.70
2019-05-12T07:33:14.622Z,7.50
2019-05-12T07:35:44.789Z,7.90
2019-05-12T07:38:20.823Z,7.10
2019-05-12T07:40:47.010Z,7.03
2019-05-12T07:43:20.702Z,6.77
2019-05-12T07:45:56.681Z,6.37
2019-05-12T07:48:23.273Z,6.20
2019-05-12T07:50:58.510Z,5.80
2019-05-12T07:53:23.480Z,6.47
2019-05-12T07:55:53.276Z,6.13
2019-05-12T07:58:24.032Z,6.67
2019-05-12T08:01:02.142Z,6.63
2019-05-12T08:03:24.500Z,6.33
2019-05-12T08:05:57.458Z,6.13
2019-05-12T08:08:24.655Z,5.67
2019-05-12T08:10:55.953Z,5.80
2019-05-12T08:13:24.790Z,5.73
2019-05-12T08:15:56.311Z,5.33
2019-05-12T08:18:24.889Z,5.23
2019-05-12T08:20:54.136Z,5.30
2019-05-12T08:23:23.553Z,5.50
2019-05-12T08:25:53.950Z,5.00
2019-05-12T08:28:27.958Z,4.90
2019-05-12T08:30:55.008Z,4.47
2019-05-12T08:33:26.027Z,4.53
2019-05-12T08:35:55.480Z,4.60
2019-05-12T08:38:25.094Z,4.10
2019-05-12T08:40:54.536Z,5.37
2019-05-12T08:43:24.202Z,5.30
2019-05-12T08:45:53.791Z,4.70
2019-05-12T08:48:24.989Z,4.70
2019-05-12T08:50:54.579Z,4.87
2019-05-12T08:53:26.301Z,4.97
2019-05-12T08:55:55.722Z,4.90
2019-05-12T08:58:32.504Z,4.03
2019-05-12T09:00:55.854Z,5.80
2019-05-12T09:03:27.115Z,4.17
2019-05-12T09:05:56.253Z,4.80
2019-05-12T09:08:25.832Z,5.50
2019-05-12T09:10:55.606Z,4.53
2019-05-12T09:13:24.932Z,4.57
2019-05-12T09:15:54.282Z,4.20
2019-05-12T09:18:33.528Z,4.70
2019-05-12T09:20:55.687Z,4.13
2019-05-12T09:23:25.139Z,4.43
2019-05-12T09:25:57.217Z,4.00
2019-05-12T09:28:25.143Z,3.80
2019-05-12T09:30:54.524Z,5.20
2019-05-12T09:33:29.580Z,4.50
2019-05-12T09:35:54.728Z,4.33
2019-05-12T09:38:26.287Z,4.10
2019-05-12T09:41:00.727Z,4.50
2019-05-12T09:43:25.707Z,4.73
2019-05-12T09:45:56.419Z,3.53
2019-05-12T09:48:25.884Z,3.30
2019-05-12T09:51:00.298Z,3.73
2019-05-12T09:53:25.947Z,4.13
2019-05-12T09:55:58.105Z,3.50
2019-05-12T09:58:27.904Z,3.40
2019-05-12T10:00:57.065Z,3.53
2019-05-12T10:03:30.677Z,3.93
2019-05-12T10:05:57.219Z,3.90
2019-05-12T10:08:29.223Z,4.17
2019-05-12T10:10:57.316Z,3.57
2019-05-12T10:13:30.076Z,3.73
2019-05-12T10:15:58.771Z,4.40
2019-05-12T10:18:28.226Z,4.30
2019-05-12T10:20:57.404Z,3.40
2019-05-12T10:23:27.461Z,5.10
2019-05-12T10:26:01.372Z,3.73
2019-05-12T10:28:27.642Z,4.17
2019-05-12T10:30:57.044Z,3.80
2019-05-12T10:33:26.362Z,3.70
2019-05-12T10:35:59.278Z,4.47
2019-05-12T10:38:26.424Z,4.27
2019-05-12T10:40:55.565Z,3.63
2019-05-12T10:43:24.897Z,3.50
2019-05-12T10:45:54.114Z,5.23
2019-05-12T10:48:23.517Z,3.47
2019-05-12T10:50:53.585Z,3.87
2019-05-12T10:53:23.567Z,3.60
2019-05-12T10:55:54.229Z,3.70
2019-05-12T10:58:24.850Z,3.50
2019-05-12T11:00:59.076Z,3.37
2019-05-12T11:03:25.220Z,2.77
2019-05-12T11:06:02.214Z,3.73
2019-05-12T11:08:25.397Z,3.83
2019-05-12T11:10:59.263Z,3.30
2019-05-12T11:13:25.431Z,4.60
2019-05-12T11:15:54.691Z,4.63
2019-05-12T11:18:30.088Z,3.60
2019-05-12T11:20:54.840Z,4.03
2019-05-12T11:23:24.591Z,3.73
2019-05-12T11:25:54.016Z,3.90
2019-05-12T11:28:24.458Z,3.10
2019-05-12T11:30:53.870Z,3.63
2019-05-12T11:33:23.780Z,4.23
2019-05-12T11:35:54.187Z,3.50
2019-05-12T11:38:24.460Z,3.10
2019-05-12T11:40:53.955Z,2.80
2019-05-12T11:43:24.782Z,3.40
2019-05-12T11:45:54.350Z,3.57
2019-05-12T11:48:23.807Z,3.50
2019-05-12T11:50:54.503Z,3.30
2019-05-12T11:53:30.958Z,3.60
2019-05-12T11:55:56.356Z,3.00
2019-05-12T11:58:25.642Z,3.13
2019-05-12T12:00:58.732Z,2.90
2019-05-12T12:03:27.370Z,3.37
2019-05-12T12:05:56.621Z,2.90
2019-05-12T12:08:33.720Z,2.67
2019-05-12T12:10:56.685Z,2.70
2019-05-12T12:13:29.929Z,2.17
2019-05-12T12:16:00.574Z,2.70
2019-05-12T12:18:27.614Z,2.70
2019-05-12T12:21:02.759Z,2.43
2019-05-12T12:23:27.657Z,3.13
2019-05-12T12:25:56.889Z,2.90
2019-05-12T12:28:26.062Z,3.37
2019-05-12T12:30:58.884Z,3.53
2019-05-12T12:33:30.893Z,2.87
2019-05-12T12:36:00.675Z,2.83
2019-05-12T12:38:46.999Z,2.50
2019-05-12T12:41:16.112Z,2.60
2019-05-12T12:43:45.251Z,3.33
2019-05-12T12:46:24.385Z,2.70
2019-05-12T12:48:54.210Z,2.50
2019-05-12T12:51:23.703Z,2.77
2019-05-12T12:53:54.093Z,2.67
2019-05-12T12:56:28.632Z,2.17
2019-05-12T12:58:55.496Z,2.70
2019-05-12T13:01:28.736Z,2.50
2019-05-12T13:03:59.392Z,3.10
2019-05-12T13:06:26.664Z,2.70
2019-05-12T13:08:55.933Z,2.93
2019-05-12T13:11:33.173Z,2.33
2019-05-12T13:13:56.076Z,2.87
2019-05-12T13:16:25.212Z,3.33
2019-05-12T13:18:54.414Z,2.13
2019-05-12T13:21:43.951Z,2.40
2019-05-12T13:24:13.247Z,2.83
2019-05-12T13:26:43.600Z,2.87
2019-05-12T13:29:13.481Z,2.10
2019-05-12T13:31:46.588Z,2.40
2019-05-12T13:34:14.383Z,2.20
2019-05-12T13:36:44.172Z,2.60
2019-05-12T13:39:16.316Z,2.63
2019-05-12T13:41:50.387Z,1.97
2019-05-12T13:44:16.627Z,1.67
2019-05-12T13:46:48.878Z,1.73
2019-05-12T13:49:16.791Z,1.70
2019-05-12T13:51:48.345Z,1.63
2019-05-12T13:54:20.043Z,1.20
2019-05-12T13:56:49.261Z,1.40
2019-05-12T13:59:21.123Z,1.43
2019-05-12T14:01:49.400Z,1.70
2019-05-12T14:04:22.152Z,1.80
2019-05-12T14:06:49.463Z,2.47
2019-05-12T14:09:18.603Z,1.57
2019-05-12T14:11:47.856Z,1.60
2019-05-12T14:14:17.004Z,1.60
2019-05-12T14:16:57.381Z,1.63
2019-05-12T14:19:17.040Z,1.30
2019-05-12T14:21:46.213Z,1.47
2019-05-12T14:24:15.381Z,1.20
2019-05-12T14:26:48.050Z,1.20
2019-05-12T14:29:20.339Z,1.10
2019-05-12T14:31:54.965Z,1.30
2019-05-12T14:34:20.735Z,1.17
2019-05-12T14:36:48.292Z,1.33
2019-05-12T14:39:17.523Z,1.37
2019-05-12T14:41:53.083Z,1.10
2019-05-12T14:44:17.918Z,1.20
2019-05-12T14:46:50.604Z,1.10
2019-05-12T14:49:20.457Z,1.40
2019-05-12T14:51:48.784Z,1.63
2019-05-12T14:54:17.942Z,1.90
2019-05-12T14:56:53.106Z,1.17
2019-05-12T14:59:18.088Z,1.30
2019-05-12T15:01:57.180Z,1.30
2019-05-12T15:04:19.268Z,0.90
2019-05-12T15:06:48.991Z,1.00
2019-05-12T15:09:21.802Z,1.10
2019-05-12T15:11:49.207Z,1.20
2019-05-12T15:14:18.356Z,1.60
2019-05-12T15:16:48.345Z,1.33
2019-05-12T15:19:20.716Z,1.10
2019-05-12T15:21:48.376Z,1.20
2019-05-12T15:24:18.983Z,1.10
2019-05-12T15:26:50.592Z,1.23
2019-05-12T15:29:20.087Z,1.63
2019-05-12T15:31:55.852Z,1.93
2019-05-12T15:34:20.374Z,1.23
2019-05-12T15:36:51.811Z,1.13
2019-05-12T15:39:20.407Z,1.40
2019-05-12T15:41:50.996Z,1.90
2019-05-12T15:44:23.147Z,1.20
2019-05-12T15:46:53.550Z,1.10
2019-05-12T15:49:25.985Z,1.03
2019-05-12T15:51:58.290Z,1.00
2019-05-12T15:54:24.836Z,1.40
2019-05-12T15:56:55.768Z,1.47
2019-05-12T15:59:25.103Z,1.10
2019-05-12T16:02:07.574Z,2.03
2019-05-12T16:04:25.329Z,1.97
2019-05-12T16:06:57.726Z,1.37
2019-05-12T16:09:25.430Z,1.50
2019-05-12T16:11:54.693Z,1.10
2019-05-12T16:14:24.043Z,0.93
2019-05-12T16:16:53.559Z,1.37
2019-05-12T16:19:23.477Z,2.70
2019-05-12T16:21:55.469Z,1.40
2019-05-12T16:24:27.358Z,1.30
2019-05-12T16:26:55.656Z,1.27
2019-05-12T16:29:24.897Z,0.97
2019-05-12T16:31:54.060Z,1.67
2019-05-12T16:34:23.286Z,1.40
2019-05-12T16:36:54.806Z,1.20
2019-05-12T16:39:23.962Z,1.27
2019-05-12T16:41:54.400Z,1.07
2019-05-12T16:44:26.141Z,1.00
2019-05-12T16:46:54.698Z,1.20
2019-05-12T16:49:24.966Z,0.87
2019-05-12T16:51:54.947Z,1.10
2019-05-12T16:54:24.409Z,1.20
2019-05-12T16:57:00.345Z,0.90
2019-05-12T16:59:26.359Z,1.10
2019-05-12T17:01:59.434Z,1.30
2019-05-12T17:04:26.555Z,0.83
2019-05-12T17:06:55.771Z,1.60
2019-05-12T17:09:24.940Z,1.73
2019-05-12T17:11:55.547Z,1.00
2019-05-12T17:14:24.814Z,1.20
2019-05-12T17:16:54.425Z,1.70
2019-05-12T17:19:23.876Z,1.80
2019-05-12T17:21:57.667Z,1.90
2019-05-12T17:24:24.200Z,5.63
2019-05-12T17:26:53.417Z,1.13
2019-05-12T17:29:24.249Z,1.43
2019-05-12T17:31:53.695Z,1.30
2019-05-12T17:34:25.662Z,1.70
2019-05-12T17:36:58.527Z,1.20
2019-05-12T17:39:29.246Z,1.30
2019-05-12T17:41:55.657Z,1.70
2019-05-12T17:44:24.849Z,1.20
2019-05-12T17:46:54.119Z,1.10
2019-05-12T17:49:29.176Z,1.10
2019-05-12T17:51:57.098Z,1.40
2019-05-12T17:54:26.496Z,1.07
2019-05-12T17:56:56.877Z,1.63
2019-05-12T17:59:29.186Z,1.50
2019-05-12T18:01:57.577Z,1.40
2019-05-12T18:04:30.589Z,1.40
2019-05-12T18:06:57.850Z,1.13
2019-05-12T18:09:27.000Z,1.83
2019-05-12T18:11:56.491Z,1.37
2019-05-12T18:14:27.819Z,3.50
2019-05-12T18:17:02.505Z,2.03
2019-05-12T18:19:27.665Z,1.10
2019-05-12T18:22:03.414Z,1.70
2019-05-12T18:24:28.763Z,1.20
2019-05-12T18:27:04.262Z,1.10
2019-05-12T18:29:28.906Z,1.20
2019-05-12T18:31:58.326Z,1.60
2019-05-12T18:34:27.494Z,1.40
2019-05-12T18:36:59.662Z,1.23
2019-05-12T18:39:27.615Z,1.20
2019-05-12T18:41:56.851Z,1.00
2019-05-12T18:44:31.092Z,1.50
2019-05-12T18:46:56.901Z,1.50
2019-05-12T18:49:26.061Z,1.73
2019-05-12T18:51:57.118Z,1.50
2019-05-12T18:54:26.392Z,1.30
2019-05-12T18:57:02.462Z,1.50
2019-05-12T18:59:28.341Z,1.20
2019-05-12T19:01:57.973Z,1.43
2019-05-12T19:04:27.229Z,1.63
2019-05-12T19:06:56.444Z,1.73
2019-05-12T19:09:25.782Z,1.37
2019-05-12T19:11:55.053Z,1.10
2019-05-12T19:14:34.959Z,1.50
2019-05-12T19:16:55.272Z,1.30
2019-05-12T19:19:25.001Z,1.23
2019-05-12T19:22:05.393Z,1.23
2019-05-12T19:24:25.235Z,1.20
2019-05-12T19:26:54.435Z,1.63
2019-05-12T19:29:24.340Z,1.60
2019-05-12T19:31:57.871Z,1.20
2019-05-12T19:34:26.151Z,1.43
2019-05-12T19:36:55.697Z,1.17
2019-05-12T19:39:25.392Z,1.40
2019-05-12T19:41:54.909Z,1.40
2019-05-12T19:44:26.343Z,1.00
2019-05-12T19:46:54.994Z,1.60
2019-05-12T19:49:26.140Z,1.30
2019-05-12T19:51:55.123Z,1.17
2019-05-12T19:54:30.200Z,1.53
2019-05-12T19:56:56.440Z,1.17
2019-05-12T19:59:25.627Z,1.80
2019-05-12T20:01:54.900Z,1.50
2019-05-12T20:04:33.104Z,1.60
2019-05-12T20:06:55.017Z,1.70
2019-05-12T20:09:24.450Z,1.20
2019-05-12T20:11:54.456Z,1.00
2019-05-12T20:14:24.101Z,1.13
2019-05-12T20:16:54.429Z,1.57
2019-05-12T20:19:25.271Z,2.27
2019-05-12T20:21:54.753Z,1.60
2019-05-12T20:24:23.942Z,2.00
2019-05-12T20:26:53.842Z,1.40
2019-05-12T20:29:24.572Z,1.10
2019-05-12T20:31:54.505Z,1.90
2019-05-12T20:34:24.424Z,1.83
2019-05-12T20:36:53.942Z,1.80
2019-05-12T20:39:24.498Z,2.20
2019-05-12T20:42:00.500Z,1.70
2019-05-12T20:44:44.540Z,1.57
2019-05-12T20:47:14.077Z,2.23
2019-05-12T20:49:51.132Z,1.30
2019-05-12T20:52:14.581Z,2.40
2019-05-12T20:54:44.200Z,1.60
2019-05-12T20:57:14.126Z,1.30
2019-05-12T20:59:44.594Z,1.67
2019-05-12T21:02:14.181Z,1.50
2019-05-12T21:04:44.311Z,1.67
2019-05-12T21:07:21.525Z,1.47
2019-05-12T21:09:44.710Z,1.10
2019-05-12T21:12:13.995Z,1.00
2019-05-12T21:14:51.586Z,1.40
2019-05-12T21:17:15.830Z,1.30
2019-05-12T21:19:55.677Z,1.30
2019-05-12T21:22:15.985Z,1.13
2019-05-12T21:24:45.111Z,2.00
2019-05-12T21:27:15.791Z,1.30
2019-05-12T21:29:45.288Z,1.40
2019-05-12T21:32:16.923Z,1.30
2019-05-12T21:34:45.388Z,1.10
2019-05-12T21:37:14.629Z,1.00
2019-05-12T21:39:49.671Z,1.27
2019-05-12T21:42:15.979Z,1.23
2019-05-12T21:44:47.043Z,1.40
2019-05-12T21:47:16.122Z,1.03
2019-05-12T21:49:48.597Z,1.10
2019-05-12T21:52:17.469Z,1.10
2019-05-12T21:54:46.596Z,1.20
2019-05-12T21:57:19.119Z,1.10
2019-05-12T21:59:46.710Z,1.10
2019-05-12T22:02:19.640Z,1.97
2019-05-12T22:04:46.979Z,1.57
2019-05-12T22:07:16.132Z,1.30
2019-05-12T22:09:47.095Z,0.90
2019-05-12T22:12:16.204Z,1.17
2019-05-12T22:14:46.275Z,1.10
2019-05-12T22:17:15.649Z,0.97
2019-05-12T22:19:44.900Z,1.47
2019-05-12T22:22:14.148Z,0.90
2019-05-12T22:24:44.130Z,1.17
2019-05-12T22:27:21.756Z,1.10
2019-05-12T22:29:44.355Z,1.40
2019-05-12T22:32:13.828Z,1.07
2019-05-12T22:34:44.628Z,1.00
2019-05-12T22:37:13.987Z,1.17
2019-05-12T22:39:44.518Z,1.13
2019-05-12T22:42:19.819Z,1.20
2019-05-12T22:44:44.756Z,1.30
2019-05-12T22:47:17.493Z,1.17
2019-05-12T22:49:52.129Z,1.03
2019-05-12T22:52:17.513Z,1.17
2019-05-12T22:54:50.851Z,1.10
2019-05-12T22:57:17.625Z,1.30
2019-05-12T22:59:46.775Z,1.10
2019-05-12T23:02:24.434Z,1.10
2019-05-12T23:04:46.788Z,0.87
2019-05-12T23:07:19.208Z,1.00
2019-05-12T23:09:46.836Z,1.00
2019-05-12T23:12:20.013Z,1.10
2019-05-12T23:14:47.986Z,0.90
2019-05-12T23:17:17.140Z,1.00
2019-05-12T23:19:51.617Z,0.90
2019-05-12T23:22:17.247Z,1.07
2019-05-12T23:24:46.387Z,0.87
2019-05-12T23:27:18.825Z,1.40
2019-05-12T23:29:46.377Z,1.00
2019-05-12T23:32:15.597Z,0.93
2019-05-12T23:34:53.055Z,1.20
2019-05-12T23:37:15.771Z,1.00
2019-05-12T23:39:44.987Z,1.20
2019-05-12T23:42:14.218Z,1.10
2019-05-12T23:44:44.144Z,0.80
2019-05-12T23:47:13.548Z,0.97
2019-05-12T23:49:44.365Z,0.90
2019-05-12T23:52:14.105Z,1.20
2019-05-12T23:54:44.449Z,1.07
2019-05-12T23:57:15.672Z,0.90
2019-05-12T23:59:44.710Z,1.00
